Time,TemperatureF,DewpointF,PressureIn,WindDirection,WindDirectionDegrees,WindSpeedMPH,WindSpeedGustMPH,Humidity,HourlyPrecipIn,Conditions,Clouds,dailyrainin,SoftwareType,DateUTC
2013-10-24 00:10:00,44.2,37.0,30.17,ENE,59,2.0,4.0,76,0.00,,,0.00,weatherlink.com 1.10,2013-10-24 05:10:00,
2013-10-24 00:25:00,44.2,37.0,30.17,ENE,64,3.0,5.0,76,0.00,,,0.00,weatherlink.com 1.10,2013-10-24 05:25:00,
2013-10-24 00:55:00,43.0,37.0,30.15,ENE,71,1.0,3.0,79,0.00,,,0.00,weatherlink.com 1.10,2013-10-24 05:55:00,
2013-10-24 01:10:00,42.6,37.0,30.16,ENE,71,1.0,3.0,80,0.00,,,0.00,weatherlink.com 1.10,2013-10-24 06:10:00,
2013-10-24 01:25:00,42.5,37.0,30.16,ENE,71,0.0,2.0,80,0.00,,,0.00,weatherlink.com 1.10,2013-10-24 06:25:00,
2013-10-24 01:40:00,42.8,37.0,30.17,ENE,71,2.0,3.0,79,0.00,,,0.00,weatherlink.com 1.10,2013-10-24 06:40:00,
2013-10-24 01:55:00,43.1,37.0,30.17,ENE,71,0.0,3.0,78,0.00,,,0.00,weatherlink.com 1.10,2013-10-24 06:55:00,
2013-10-24 02:10:00,43.1,37.0,30.17,ENE,71,0.0,3.0,78,0.00,,,0.00,weatherlink.com 1.10,2013-10-24 07:10:00,
2013-10-24 02:25:00,43.3,37.0,30.17,ENE,71,0.0,3.0,77,0.00,,,0.00,weatherlink.com 1.10,2013-10-24 07:25:00,
2013-10-24 02:40:00,43.3,37.0,30.18,ENE,71,0.0,0.0,78,0.00,,,0.00,weatherlink.com 1.10,2013-10-24 07:40:00,
2013-10-24 03:10:00,43.6,37.0,30.18,ENE,71,0.0,2.0,78,0.00,,,0.00,weatherlink.com 1.10,2013-10-24 08:10:00,
2013-10-24 03:25:00,43.3,37.0,30.19,ENE,71,0.0,0.0,78,0.00,,,0.00,weatherlink.com 1.10,2013-10-24 08:25:00,
2013-10-24 03:40:00,43.3,38.0,30.18,ENE,71,0.0,0.0,80,0.00,,,0.00,weatherlink.com 1.10,2013-10-24 08:40:00,
2013-10-24 03:55:00,43.4,39.0,30.19,ENE,71,2.0,3.0,83,0.00,,,0.00,weatherlink.com 1.10,2013-10-24 08:55:00,
2013-10-24 04:10:00,43.3,39.0,30.19,ENE,71,0.0,2.0,84,0.00,,,0.00,weatherlink.com 1.10,2013-10-24 09:10:00,
2013-10-24 04:25:00,43.0,39.0,30.19,ENE,67,0.0,2.0,84,0.00,,,0.00,weatherlink.com 1.10,2013-10-24 09:25:00,
2013-10-24 04:40:00,42.9,38.0,30.20,NW,313,3.0,4.0,84,0.00,,,0.00,weatherlink.com 1.10,2013-10-24 09:40:00,
2013-10-24 04:55:00,42.3,38.0,30.21,NW,313,3.0,4.0,86,0.00,,,0.00,weatherlink.com 1.10,2013-10-24 09:55:00,
2013-10-24 05:10:00,42.2,38.0,30.22,NNW,335,4.0,5.0,86,0.00,,,0.00,weatherlink.com 1.10,2013-10-24 10:10:00,
2013-10-24 05:25:00,42.3,38.0,30.23,North,9,7.0,10.0,84,0.00,,,0.00,weatherlink.com 1.10,2013-10-24 10:25:00,
2013-10-24 05:40:00,41.9,37.0,30.24,North,360,6.0,11.0,84,0.00,,,0.00,weatherlink.com 1.10,2013-10-24 10:40:00,
2013-10-24 05:55:00,41.6,37.0,30.24,North,5,6.0,12.0,83,0.00,,,0.00,weatherlink.com 1.10,2013-10-24 10:55:00,
2013-10-24 06:10:00,40.9,36.0,30.26,North,355,2.0,9.0,84,0.00,,,0.00,weatherlink.com 1.10,2013-10-24 11:10:00,
2013-10-24 06:25:00,40.3,36.0,30.26,NNE,13,8.0,12.0,84,0.00,,,0.00,weatherlink.com 1.10,2013-10-24 11:25:00,
2013-10-24 06:40:00,39.3,35.0,30.27,NNE,17,6.0,13.0,83,0.00,,,0.00,weatherlink.com 1.10,2013-10-24 11:40:00,
2013-10-24 06:55:00,38.8,34.0,30.28,NNE,18,8.0,12.0,84,0.00,,,0.00,weatherlink.com 1.10,2013-10-24 11:55:00,
2013-10-24 07:11:00,38.5,34.0,30.28,North,9,4.0,9.0,85,0.00,,,0.00,weatherlink.com 1.10,2013-10-24 12:11:00,
2013-10-24 07:26:00,38.8,35.0,30.29,North,5,6.0,10.0,85,0.00,,,0.00,weatherlink.com 1.10,2013-10-24 12:26:00,
2013-10-24 07:41:00,38.7,35.0,30.31,North,360,7.0,10.0,86,0.00,,,0.00,weatherlink.com 1.10,2013-10-24 12:41:00,
2013-10-24 07:56:00,39.0,35.0,30.32,NNE,15,7.0,11.0,86,0.00,,,0.00,weatherlink.com 1.10,2013-10-24 12:56:00,
2013-10-24 10:56:00,43.3,30.0,30.37,NNE,21,12.0,16.0,60,0.00,,,0.00,weatherlink.com 1.10,2013-10-24 15:56:00,
2013-10-24 11:12:00,43.8,31.0,30.38,NNE,32,5.0,15.0,61,0.00,,,0.00,weatherlink.com 1.10,2013-10-24 16:12:00,
2013-10-24 11:27:00,44.6,30.0,30.37,NE,50,6.0,14.0,58,0.00,,,0.00,weatherlink.com 1.10,2013-10-24 16:27:00,
2013-10-24 11:42:00,44.6,30.0,30.38,NW,324,8.0,14.0,57,0.00,,,0.00,weatherlink.com 1.10,2013-10-24 16:42:00,
2013-10-24 11:57:00,44.9,29.0,30.38,NNW,329,3.0,16.0,55,0.00,,,0.00,weatherlink.com 1.10,2013-10-24 16:57:00,
2013-10-24 12:12:00,45.7,29.0,30.38,WNW,286,8.0,13.0,52,0.00,,,0.00,weatherlink.com 1.10,2013-10-24 17:12:00,
2013-10-24 12:27:00,46.1,28.0,30.38,NNW,331,9.0,13.0,49,0.00,,,0.00,weatherlink.com 1.10,2013-10-24 17:27:00,
2013-10-24 12:42:00,46.4,27.0,30.38,NNW,329,7.0,15.0,47,0.00,,,0.00,weatherlink.com 1.10,2013-10-24 17:42:00,
2013-10-24 12:57:00,46.2,27.0,30.38,North,355,4.0,14.0,47,0.00,,,0.00,weatherlink.com 1.10,2013-10-24 17:57:00,
2013-10-24 13:42:00,47.1,27.0,30.36,NNE,13,9.0,16.0,45,0.00,,,0.00,weatherlink.com 1.10,2013-10-24 18:42:00,
2013-10-24 13:57:00,47.3,27.0,30.36,North,360,5.0,18.0,45,0.00,,,0.00,weatherlink.com 1.10,2013-10-24 18:57:00,
2013-10-24 14:12:00,47.8,27.0,30.36,NW,323,7.0,15.0,45,0.00,,,0.00,weatherlink.com 1.10,2013-10-24 19:12:00,
2013-10-24 14:27:00,48.5,29.0,30.36,NNE,13,7.0,18.0,47,0.00,,,0.00,weatherlink.com 1.10,2013-10-24 19:27:00,
2013-10-24 14:42:00,48.1,26.0,30.36,WNW,296,10.0,20.0,43,0.00,,,0.00,weatherlink.com 1.10,2013-10-24 19:42:00,
2013-10-24 14:57:00,48.1,25.0,30.36,North,350,5.0,17.0,41,0.00,,,0.00,weatherlink.com 1.10,2013-10-24 19:57:00,
2013-10-24 15:12:00,48.1,26.0,30.36,WNW,293,7.0,14.0,43,0.00,,,0.00,weatherlink.com 1.10,2013-10-24 20:12:00,
2013-10-24 15:27:00,48.2,26.0,30.36,NW,314,9.0,15.0,42,0.00,,,0.00,weatherlink.com 1.10,2013-10-24 20:27:00,
2013-10-24 15:42:00,48.2,26.0,30.36,NNE,25,8.0,15.0,42,0.00,,,0.00,weatherlink.com 1.10,2013-10-24 20:42:00,
2013-10-24 15:57:00,48.5,28.0,30.36,NW,311,13.0,14.0,45,0.00,,,0.00,weatherlink.com 1.10,2013-10-24 20:57:00,
2013-10-24 16:12:00,48.5,27.0,30.36,NNW,334,9.0,13.0,43,0.00,,,0.00,weatherlink.com 1.10,2013-10-24 21:12:00,
2013-10-24 16:27:00,48.5,27.0,30.36,NW,307,5.0,12.0,43,0.00,,,0.00,weatherlink.com 1.10,2013-10-24 21:27:00,
2013-10-24 16:42:00,48.3,25.0,30.36,NNW,344,13.0,13.0,41,0.00,,,0.00,weatherlink.com 1.10,2013-10-24 21:42:00,
2013-10-24 16:57:00,47.8,25.0,30.36,NNW,338,5.0,14.0,41,0.00,,,0.00,weatherlink.com 1.10,2013-10-24 21:57:00,
2013-10-24 17:12:00,47.7,25.0,30.36,NNW,342,5.0,11.0,42,0.00,,,0.00,weatherlink.com 1.10,2013-10-24 22:12:00,
2013-10-24 17:27:00,46.9,25.0,30.36,NW,313,9.0,15.0,42,0.00,,,0.00,weatherlink.com 1.10,2013-10-24 22:27:00,
2013-10-24 17:42:00,46.5,25.0,30.36,NNW,332,8.0,10.0,44,0.00,,,0.00,weatherlink.com 1.10,2013-10-24 22:42:00,
2013-10-24 17:57:00,46.2,26.0,30.37,NW,309,5.0,9.0,45,0.00,,,0.00,weatherlink.com 1.10,2013-10-24 22:57:00,
2013-10-24 18:12:00,45.6,26.0,30.37,NNW,344,6.0,9.0,47,0.00,,,0.00,weatherlink.com 1.10,2013-10-24 23:12:00,
2013-10-24 18:27:00,44.5,27.0,30.37,NNW,338,3.0,6.0,50,0.00,,,0.00,weatherlink.com 1.10,2013-10-24 23:27:00,
2013-10-24 18:42:00,43.4,27.0,30.38,NW,310,2.0,5.0,53,0.00,,,0.00,weatherlink.com 1.10,2013-10-24 23:42:00,
2013-10-24 18:57:00,42.8,27.0,30.38,NNW,329,3.0,6.0,53,0.00,,,0.00,weatherlink.com 1.10,2013-10-24 23:57:00,
2013-10-24 19:12:00,42.2,27.0,30.39,NNW,331,3.0,5.0,55,0.00,,,0.00,weatherlink.com 1.10,2013-10-25 00:12:00,
2013-10-24 19:27:00,41.8,27.0,30.39,NNW,332,3.0,4.0,56,0.00,,,0.00,weatherlink.com 1.10,2013-10-25 00:27:00,
2013-10-24 19:42:00,41.5,27.0,30.40,NNW,333,2.0,4.0,56,0.00,,,0.00,weatherlink.com 1.10,2013-10-25 00:42:00,
2013-10-24 19:57:00,41.6,27.0,30.41,NNW,343,3.0,6.0,56,0.00,,,0.00,weatherlink.com 1.10,2013-10-25 00:57:00,
2013-10-24 20:12:00,41.5,27.0,30.41,NNW,344,3.0,6.0,57,0.00,,,0.00,weatherlink.com 1.10,2013-10-25 01:12:00,
2013-10-24 20:27:00,41.2,27.0,30.41,NNW,348,5.0,6.0,57,0.00,,,0.00,weatherlink.com 1.10,2013-10-25 01:27:00,
2013-10-24 20:42:00,40.6,27.0,30.42,NNW,346,3.0,5.0,58,0.00,,,0.00,weatherlink.com 1.10,2013-10-25 01:42:00,
2013-10-24 20:57:00,40.2,27.0,30.42,North,351,2.0,5.0,60,0.00,,,0.00,weatherlink.com 1.10,2013-10-25 01:57:00,
2013-10-24 21:12:00,39.5,27.0,30.43,North,355,3.0,5.0,62,0.00,,,0.00,weatherlink.com 1.10,2013-10-25 02:12:00,
2013-10-24 21:27:00,39.1,27.0,30.44,North,355,3.0,4.0,63,0.00,,,0.00,weatherlink.com 1.10,2013-10-25 02:27:00,
2013-10-24 21:43:00,38.5,28.0,30.45,North,355,3.0,4.0,65,0.00,,,0.00,weatherlink.com 1.10,2013-10-25 02:43:00,
2013-10-24 21:58:00,38.1,27.0,30.45,NNE,16,4.0,5.0,65,0.00,,,0.00,weatherlink.com 1.10,2013-10-25 02:58:00,
2013-10-24 22:13:00,37.9,27.0,30.46,NNE,27,2.0,6.0,65,0.00,,,0.00,weatherlink.com 1.10,2013-10-25 03:13:00,
2013-10-24 22:28:00,37.7,27.0,30.47,NNE,31,3.0,4.0,66,0.00,,,0.00,weatherlink.com 1.10,2013-10-25 03:28:00,
2013-10-24 22:43:00,37.6,27.0,30.47,NE,40,4.0,5.0,66,0.00,,,0.00,weatherlink.com 1.10,2013-10-25 03:43:00,
2013-10-24 22:58:00,37.5,27.0,30.47,NE,42,3.0,5.0,66,0.00,,,0.00,weatherlink.com 1.10,2013-10-25 03:58:00,
2013-10-24 23:13:00,37.1,27.0,30.47,NE,38,3.0,5.0,67,0.00,,,0.00,weatherlink.com 1.10,2013-10-25 04:13:00,
2013-10-24 23:28:00,36.7,28.0,30.48,NE,42,3.0,5.0,72,0.00,,,0.00,weatherlink.com 1.10,2013-10-25 04:28:00,
2013-10-24 23:43:00,36.4,27.0,30.48,NE,35,2.0,4.0,69,0.00,,,0.00,weatherlink.com 1.10,2013-10-25 04:43:00,
2013-10-24 23:58:00,36.3,27.0,30.48,NE,46,3.0,5.0,68,0.00,,,0.00,weatherlink.com 1.10,2013-10-25 04:58:00,